Latest Weather Observations for Swan Island

IDT60801

Issued at 8:01 am EST Monday 3 August 2015 (issued every 30 minutes, with the page automatically refreshed every 10 minutes)

About weather observations | Map of weather stations | Latest weather observations for TAS | Other Formats
Station Details ID: 092123 Name: SWAN ISLAND Lat: -40.73 Lon: 148.12 Height: 15.0 m
Data from the previous 72 hours. | See also: Recent months at Swan Island
Date/Time
EST
Temp
°C
App
Temp
°C
Dew
Point
Rel
Hum
%
Delta-T
°C
Wind Press
QNH
hPa
Press
MSL
hPa
Rain
since 9 am
mm
Dir
 
Spd
km/h
Gust
km/h
Spd
kts
Gust
kts
03/08:00am 5.6 - - - - W 32 46 17 25 1003.9 1003.9 10.0
03/07:30am 5.8 - - - - W 39 67 21 36 1003.1 1003.1 10.0
03/07:00am 5.5 - - - - WSW 32 52 17 28 1002.7 1002.7 10.0
03/06:30am 6.2 - - - - WSW 32 50 17 27 1001.7 1001.7 10.0
03/06:07am 6.1 - - - - W 43 63 23 34 1001.0 1001.0 10.0
03/06:00am 6.4 - - - - W 44 61 24 33 1001.0 1001.0 10.0
03/05:41am 6.5 - - - - W 48 69 26 37 1000.8 1000.8 10.0
03/05:30am 6.4 - - - - W 50 65 27 35 1000.2 1000.2 10.0
03/05:03am 6.8 - - - - W 44 65 24 35 999.9 999.9 10.0
03/05:00am 6.8 - - - - W 48 65 26 35 999.9 999.9 10.0
03/04:30am 7.0 - - - - W 50 72 27 39 999.6 999.6 10.0
03/04:20am 7.2 - - - - W 50 70 27 38 999.4 999.4 10.0
03/04:00am 7.0 - - - - W 44 61 24 33 998.8 998.8 10.0
03/03:33am 7.0 - - - - W 52 72 28 39 998.5 998.5 10.0
03/03:30am 7.2 - - - - W 56 72 30 39 998.4 998.4 10.0
03/03:00am 7.2 - - - - W 50 72 27 39 998.1 998.1 10.0
03/02:32am 7.0 - - - - W 46 69 25 37 998.8 998.8 10.0
03/02:30am 7.4 - - - - W 46 61 25 33 998.9 998.9 10.0
03/02:08am 7.4 - - - - W 56 78 30 42 998.7 998.7 10.0
03/02:04am 7.2 - - - - W 48 78 26 42 998.4 998.4 10.0
03/02:00am 7.4 - - - - W 44 69 24 37 998.6 998.6 10.0
03/01:59am 7.5 - - - - W 44 69 24 37 998.7 998.7 10.0
03/01:58am 7.5 - - - - W 46 74 25 40 998.7 998.7 10.0
03/01:48am 7.5 - - - - W 50 76 27 41 998.4 998.4 9.8
03/01:34am 7.2 - - - - W 39 59 21 32 998.5 998.5 9.8
03/01:30am 7.1 - - - - W 41 59 22 32 998.5 998.5 9.8
03/01:00am 8.2 - - - - WNW 39 59 21 32 998.3 998.3 8.8
03/12:30am 8.1 - - - - WNW 48 70 26 38 999.0 999.0 8.6
03/12:00am 7.0 - - - - WNW 46 72 25 39 999.4 999.4 8.6
 
Date/Time
EST
Temp
°C
App
Temp
°C
Dew
Point
Rel
Hum
%
Delta-T
°C
Wind Press
QNH
hPa
Press
MSL
hPa
Rain
since 9 am
mm
Dir
 
Spd
km/h
Gust
km/h
Spd
kts
Gust
kts
02/11:32pm 7.5 - - - - WNW 46 67 25 36 999.7 999.7 8.2
02/11:30pm 7.3 - - - - WNW 48 67 26 36 999.6 999.6 8.2
02/11:06pm 7.1 - - - - WNW 43 83 23 45 1000.1 1000.1 7.8
02/11:00pm 6.3 - - - - W 50 96 27 52 1000.5 1000.5 7.4
02/10:56pm 5.7 - - - - WNW 56 96 30 52 1000.5 1000.5 7.0
02/10:51pm 8.2 - - - - WNW 52 96 28 52 1000.3 1000.3 5.8
02/10:30pm 9.7 - - - - NW 48 69 26 37 999.9 999.9 5.8
02/10:05pm 8.7 - - - - WNW 44 65 24 35 1000.4 1000.4 5.8
02/10:00pm 8.8 - - - - WNW 44 61 24 33 1000.6 1000.6 5.8
02/09:30pm 7.9 - - - - WNW 37 61 20 33 1001.5 1001.5 5.6
02/09:02pm 9.1 - - - - WNW 33 52 18 28 1001.7 1001.7 5.0
02/09:00pm 9.0 - - - - WNW 35 52 19 28 1001.7 1001.7 5.0
02/08:30pm 8.8 - - - - WNW 39 59 21 32 1002.0 1002.0 5.0
02/08:00pm 8.2 - - - - WNW 35 59 19 32 1002.2 1002.2 5.0
02/07:51pm 8.2 - - - - WNW 32 52 17 28 1002.2 1002.2 5.0
02/07:30pm 7.6 - - - - W 30 43 16 23 1002.1 1002.1 5.0
02/07:02pm 8.2 - - - - WNW 37 61 20 33 1001.8 1001.8 5.0
02/07:00pm 8.1 - - - - WNW 35 52 19 28 1001.9 1001.9 5.0
02/06:30pm 7.2 - - - - W 33 48 18 26 1001.9 1001.9 5.0
02/06:03pm 9.0 - - - - WNW 44 63 24 34 1001.2 1001.2 5.0
02/06:00pm 9.1 - - - - WNW 43 61 23 33 1001.1 1001.1 5.0
02/05:30pm 8.9 - - - - W 43 65 23 35 1000.8 1000.8 5.0
02/05:00pm 8.6 - - - - W 43 70 23 38 1000.7 1000.7 5.0
02/04:30pm 8.8 - - - - WNW 37 69 20 37 1000.1 1000.1 5.0
02/04:15pm 8.6 - - - - W 43 63 23 34 1000.1 1000.1 5.0
02/04:00pm 8.1 - - - - W 48 65 26 35 1000.1 1000.1 5.0
02/03:52pm 8.7 - - - - W 52 72 28 39 999.9 999.9 5.0
02/03:31pm 9.2 - - - - WNW 54 74 29 40 998.9 998.9 4.8
02/03:30pm 9.2 - - - - WNW 54 72 29 39 998.9 998.9 4.8
02/03:17pm 8.9 - - - - NW 46 72 25 39 999.2 999.2 4.8
02/03:11pm 9.0 - - - - NW 57 83 31 45 998.9 998.9 4.8
02/03:00pm 9.7 - - - - NW 69 107 37 58 998.7 998.7 3.6
02/02:30pm 10.4 - - - - NW 63 85 34 46 998.7 998.7 3.4
02/02:00pm 10.5 - - - - NW 56 74 30 40 999.2 999.2 3.4
02/01:30pm 10.7 - - - - NW 54 74 29 40 999.8 999.8 3.4
02/01:01pm 10.4 - - - - NW 52 70 28 38 1000.7 1000.7 3.4
02/01:00pm 10.7 - - - - NW 52 67 28 36 1000.7 1000.7 3.4
02/12:30pm 10.2 - - - - NW 54 72 29 39 1001.5 1001.5 3.4
02/12:02pm 10.0 - - - - NW 43 63 23 34 1002.3 1002.3 3.2
02/12:00pm 9.7 - - - - NW 44 63 24 34 1002.4 1002.4 3.2
02/11:44am 9.6 - - - - NW 44 69 24 37 1002.7 1002.7 2.6
02/11:30am 9.7 - - - - NW 41 56 22 30 1003.3 1003.3 2.4
02/11:00am 9.1 - - - - WNW 37 54 20 29 1004.2 1004.2 1.4
02/10:39am 10.2 - - - - NW 46 70 25 38 1004.3 1004.3 1.0
02/10:30am 11.0 - - - - NW 44 57 24 31 1004.3 1004.3 0.6
02/10:00am 9.7 - - - - NW 41 54 22 29 1004.8 1004.8 0.6
02/09:35am 10.0 - - - - NW 43 63 23 34 1005.1 1005.2 0.0
02/09:30am 10.1 - - - - NW 41 54 22 29 1005.2 1005.3 0.0
02/09:08am 9.5 - - - - NW 43 61 23 33 1005.4 1005.5 0.0
02/09:00am 9.4 - - - - NW 44 57 24 31 1005.7 1005.8 0.6
02/08:38am 9.4 - - - - NW 44 63 24 34 1005.8 1005.9 0.2
02/08:30am 9.8 - - - - NW 43 59 23 32 1005.9 1006.0 0.2
02/08:12am 10.1 - - - - NW 41 59 22 32 1006.0 1006.1 0.2
02/08:00am 10.1 - - - - NW 43 57 23 31 1006.0 1006.1 0.2
02/07:54am 10.2 - - - - NW 43 63 23 34 1006.1 1006.2 0.2
02/07:30am 9.7 - - - - NW 39 54 21 29 1006.2 1006.3 0.2
02/07:00am 9.9 - - - - NW 41 56 22 30 1006.2 1006.3 0.2
02/06:55am 9.8 - - - - NW 37 56 20 30 1006.3 1006.4 0.2
02/06:30am 10.1 - - - - NW 41 54 22 29 1006.5 1006.6 0.2
02/06:00am 9.9 - - - - WNW 41 57 22 31 1006.9 1007.0 0.2
02/05:30am 9.7 - - - - NW 43 59 23 32 1006.9 1007.0 0.2
02/05:19am 10.1 - - - - NW 43 61 23 33 1007.0 1007.1 0.2
02/05:00am 10.5 - - - - WNW 43 57 23 31 1007.2 1007.3 0.2
02/04:32am 9.8 - - - - NW 37 56 20 30 1007.4 1007.5 0.2
02/04:30am 10.0 - - - - NW 37 48 20 26 1007.5 1007.6 0.2
02/04:00am 10.1 - - - - WNW 39 54 21 29 1008.0 1008.1 0.2
02/03:30am 9.8 - - - - NW 43 57 23 31 1008.1 1008.2 0.2
02/03:00am 9.8 - - - - WNW 33 48 18 26 1008.8 1008.9 0.2
02/02:30am 9.4 - - - - WNW 33 50 18 27 1009.1 1009.2 0.2
02/02:20am 9.1 - - - - WNW 32 50 17 27 1009.2 1009.3 0.2
02/02:00am 9.5 - - - - WNW 30 44 16 24 1009.4 1009.5 0.2
02/01:32am 9.8 - - - - WNW 39 57 21 31 1009.6 1009.7 0.2
02/01:30am 9.9 - - - - WNW 37 50 20 27 1009.6 1009.7 0.2
02/01:00am 10.0 - - - - WNW 39 56 21 30 1009.8 1009.9 0.2
02/12:30am 9.4 - - - - WNW 35 54 19 29 1010.2 1010.3 0.2
02/12:12am 9.5 - - - - WNW 33 52 18 28 1010.3 1010.4 0.2
02/12:00am 9.1 - - - - WNW 32 46 17 25 1010.4 1010.5 0.2
 
Date/Time
EST
Temp
°C
App
Temp
°C
Dew
Point
Rel
Hum
%
Delta-T
°C
Wind Press
QNH
hPa
Press
MSL
hPa
Rain
since 9 am
mm
Dir
 
Spd
km/h
Gust
km/h
Spd
kts
Gust
kts
01/11:30pm 9.3 - - - - WNW 32 50 17 27 1010.6 1010.7 0.0
01/11:05pm 9.8 - - - - WNW 33 59 18 32 1010.9 1010.9 0.0
01/11:00pm 9.9 - - - - WNW 32 43 17 23 1010.9 1010.9 0.0
01/10:31pm 9.9 - - - - W 30 50 16 27 1011.2 1011.2 0.0
01/10:30pm 9.9 - - - - W 28 43 15 23 1011.2 1011.2 0.0
01/10:00pm 9.7 - - - - WNW 32 46 17 25 1011.1 1011.1 0.0
01/09:30pm 9.7 - - - - WNW 35 50 19 27 1011.0 1011.0 0.0
01/09:00pm 9.5 - - - - WNW 30 39 16 21 1011.3 1011.3 0.0
01/08:30pm 9.4 - - - - WNW 32 41 17 22 1011.3 1011.3 0.0
01/08:09pm 9.1 - - - - W 28 48 15 26 1011.1 1011.1 0.0
01/08:00pm 9.1 - - - - W 32 44 17 24 1011.0 1011.0 0.0
01/07:30pm 9.5 - - - - WNW 33 54 18 29 1010.2 1010.3 0.0
01/07:12pm 9.8 - - - - WNW 35 56 19 30 1010.2 1010.3 0.0
01/07:00pm 9.5 - - - - WNW 30 41 16 22 1010.4 1010.5 0.0
01/06:31pm 9.5 - - - - W 37 57 20 31 1009.9 1010.0 0.0
01/06:30pm 9.5 - - - - W 39 57 21 31 1009.8 1009.9 0.0
01/06:00pm 9.6 - - - - W 35 54 19 29 1009.4 1009.5 0.0
01/05:30pm 9.3 - - - - WNW 33 52 18 28 1009.2 1009.3 0.0
01/05:09pm 9.1 - - - - W 32 52 17 28 1009.2 1009.3 0.0
01/05:00pm 9.1 - - - - W 32 50 17 27 1009.2 1009.3 0.0
01/04:30pm 9.3 - - - - WNW 28 41 15 22 1009.2 1009.3 0.0
01/04:00pm 8.8 - - - - W 33 48 18 26 1009.2 1009.3 0.0
01/03:30pm 8.8 - - - - W 33 57 18 31 1008.8 1008.9 0.0
01/03:00pm 9.7 - - - - WNW 33 54 18 29 1008.3 1008.4 0.0
01/02:41pm 10.2 - - - - W 35 54 19 29 1008.0 1008.1 0.0
01/02:30pm 10.1 - - - - W 37 56 20 30 1008.0 1008.1 0.0
01/02:00pm 10.3 - - - - W 41 56 22 30 1007.5 1007.6 0.0
01/01:36pm 10.3 - - - - W 43 63 23 34 1007.2 1007.3 0.0
01/01:30pm 10.3 - - - - W 46 63 25 34 1007.1 1007.2 0.0
01/01:00pm 10.2 - - - - W 46 59 25 32 1007.0 1007.1 0.0
01/12:30pm 10.1 - - - - W 44 61 24 33 1006.8 1006.9 0.0
01/12:01pm 10.3 - - - - W 44 63 24 34 1006.6 1006.7 0.0
01/12:00pm 10.2 - - - - W 46 63 25 34 1006.6 1006.7 0.0
01/11:30am 10.1 - - - - W 46 67 25 36 1006.5 1006.6 0.0
01/11:07am 9.9 - - - - W 48 67 26 36 1006.2 1006.3 0.0
01/11:00am 9.9 - - - - W 46 59 25 32 1006.0 1006.1 0.0
01/10:52am 10.0 - - - - W 39 57 21 31 1006.0 1006.1 0.0
01/10:30am 9.9 - - - - W 44 61 24 33 1005.5 1005.6 0.0
01/10:13am 9.5 - - - - W 46 65 25 35 1005.1 1005.2 0.0
01/10:00am 9.4 - - - - W 48 67 26 36 1004.7 1004.7 0.0
01/09:30am 9.4 - - - - WNW 33 54 18 29 1004.1 1004.1 0.0
01/09:00am 8.8 - - - - W 37 57 20 31 1003.6 1003.6 11.8
01/08:57am 8.6 - - - - W 39 57 21 31 1003.5 1003.5 11.8
01/08:30am 8.3 - - - - W 43 59 23 32 1003.3 1003.3 11.8
01/08:22am 9.1 - - - - W 32 59 17 32 1003.1 1003.1 11.6
01/08:00am 8.4 - - - - WNW 41 57 22 31 1003.2 1003.2 11.4
01/07:53am 9.2 - - - - NW 50 70 27 38 1003.2 1003.2 9.8
01/07:51am 10.7 - - - - NNW 52 70 28 38 1002.7 1002.7 9.0
01/07:30am 10.4 - - - - NNW 52 61 28 33 1002.1 1002.1 7.6
01/07:00am 10.2 - - - - NNW 50 61 27 33 1002.2 1002.2 5.8
01/06:30am 10.2 - - - - NNW 50 59 27 32 1002.3 1002.3 4.2
01/06:00am 10.2 - - - - NNW 50 61 27 33 1002.4 1002.4 3.2
01/05:30am 10.4 - - - - NNW 50 59 27 32 1002.9 1002.9 2.4
01/05:00am 10.3 - - - - NNW 52 63 28 34 1003.0 1003.0 1.6
01/04:30am 10.4 - - - - NNW 50 59 27 32 1003.5 1003.5 1.0
01/04:00am 10.4 - - - - NNW 46 57 25 31 1004.1 1004.1 0.6
01/03:30am 10.8 - - - - NNW 48 56 26 30 1005.1 1005.2 0.4
01/03:00am 10.6 - - - - NNW 48 57 26 31 1006.1 1006.2 0.4
01/02:30am 10.7 - - - - NNW 50 59 27 32 1006.8 1006.9 0.4
01/02:00am 10.6 - - - - NNW 46 57 25 31 1007.4 1007.5 0.4
01/01:30am 10.3 - - - - NNW 46 54 25 29 1008.2 1008.3 0.4
01/01:00am 10.1 - - - - NNW 44 50 24 27 1009.0 1009.1 0.4
01/12:30am 9.9 - - - - NNW 44 52 24 28 1009.2 1009.3 0.4
01/12:00am 10.0 - - - - N 41 50 22 27 1009.8 1009.9 0.4
 
Date/Time
EST
Temp
°C
App
Temp
°C
Dew
Point
Rel
Hum
%
Delta-T
°C
Wind Press
QNH
hPa
Press
MSL
hPa
Rain
since 9 am
mm
Dir
 
Spd
km/h
Gust
km/h
Spd
kts
Gust
kts
31/11:30pm 10.3 - - - - NNW 46 56 25 30 1010.6 1010.7 0.4
31/11:00pm 10.2 - - - - NNW 44 54 24 29 1011.2 1011.2 0.4
31/10:30pm 10.4 - - - - NW 43 48 23 26 1011.7 1011.7 0.4
31/10:00pm 10.3 - - - - NNW 44 52 24 28 1012.1 1012.1 0.4
31/09:30pm 10.4 - - - - NW 41 52 22 28 1012.6 1012.6 0.4
31/09:00pm 10.4 - - - - NNW 46 54 25 29 1012.9 1012.9 0.4
31/08:30pm 10.3 - - - - NW 43 52 23 28 1013.2 1013.2 0.4
31/08:00pm 9.8 - - - - NW 30 37 16 20 1013.7 1013.7 0.4
31/07:30pm 9.5 - - - - NW 26 35 14 19 1013.9 1013.9 0.4
31/07:00pm 9.8 - - - - NW 28 37 15 20 1014.3 1014.3 0.4
31/06:30pm 9.9 - - - - NW 32 41 17 22 1014.1 1014.1 0.0
31/06:00pm 10.1 - - - - NW 30 41 16 22 1014.0 1014.0 0.0
31/05:30pm 9.8 - - - - NW 26 39 14 21 1013.9 1013.9 0.0
31/05:00pm 9.8 - - - - WNW 28 43 15 23 1014.1 1014.1 0.0
31/04:30pm 9.8 - - - - NW 26 37 14 20 1014.1 1014.1 0.0
31/04:00pm 10.5 - - - - NW 26 35 14 19 1014.6 1014.6 0.0
31/03:30pm 10.2 - - - - NW 24 32 13 17 1014.7 1014.7 0.0
31/03:00pm 11.3 - - - - WNW 26 37 14 20 1015.2 1015.2 0.0
31/02:30pm 11.0 - - - - WNW 24 33 13 18 1015.2 1015.2 0.0
31/02:00pm 10.7 - - - - WNW 24 33 13 18 1015.3 1015.3 0.0
31/01:30pm 11.1 - - - - WNW 24 37 13 20 1015.6 1015.6 0.0
31/01:00pm 10.2 - - - - NW 26 39 14 21 1016.0 1016.0 0.0
31/12:44pm 10.4 - - - - WNW 28 48 15 26 1016.1 1016.1 0.0
31/12:30pm 11.5 - - - - WNW 22 39 12 21 1016.4 1016.4 0.0
31/12:00pm 11.3 - - - - WNW 24 37 13 20 1016.9 1016.9 0.0
31/11:30am 10.6 - - - - WNW 26 39 14 21 1017.3 1017.3 0.0
31/11:00am 11.0 - - - - WNW 24 37 13 20 1017.6 1017.6 0.0
31/10:30am 10.8 - - - - WNW 20 33 11 18 1017.3 1017.3 0.0
31/10:00am 9.8 - - - - W 24 35 13 19 1017.1 1017.1 0.0
31/09:30am 9.5 - - - - W 15 22 8 12 1017.0 1017.0 0.0
31/09:00am 8.8 - - - - W 9 15 5 8 1016.9 1016.9 1.6
31/08:30am 7.4 - - - - WSW 7 13 4 7 1016.5 1016.5 1.6

Other Formats:

Comma delimited format used in spreadsheet applications
http://www.bom.gov.au/fwo/IDT60801/IDT60801.95985.axf

JavaScript Object Notation format (JSON) in row-major order
http://www.bom.gov.au/fwo/IDT60801/IDT60801.95985.json